Time,TemperatureF,DewpointF,PressureIn,WindDirection,WindDirectionDegrees,WindSpeedMPH,WindSpeedGustMPH,Humidity,HourlyPrecipIn,Conditions,Clouds,dailyrainin,SoftwareType,DateUTC
2013-06-19 00:04:00,53.6,19.6,29.75,NE,50,3.0,10.0,26,0.00,,,0.00,WeatherTracker,2013-06-19 07:04:00,
2013-06-19 00:09:00,53.5,17.6,29.75,West,269,2.0,10.0,24,0.00,,,0.00,WeatherTracker,2013-06-19 07:09:00,
2013-06-19 00:14:00,55.6,12.8,29.75,NW,307,10.0,10.0,18,0.00,,,0.00,WeatherTracker,2013-06-19 07:14:00,
2013-06-19 00:19:00,54.5,24.5,29.75,WSW,251,4.0,15.0,31,0.00,,,0.00,WeatherTracker,2013-06-19 07:19:00,
2013-06-19 00:24:00,52.9,21.5,29.75,ENE,61,4.0,15.0,29,0.00,,,0.00,WeatherTracker,2013-06-19 07:24:00,
2013-06-19 00:29:00,52.1,21.6,29.75,NE,47,3.0,0.0,30,0.00,,,0.00,WeatherTracker,2013-06-19 07:29:00,
2013-06-19 00:34:00,51.0,22.9,29.75,SE,129,2.0,9.0,33,0.00,,,0.00,WeatherTracker,2013-06-19 07:34:00,
2013-06-19 00:39:00,49.5,21.6,29.75,WSW,244,6.0,9.0,33,0.00,,,0.00,WeatherTracker,2013-06-19 07:39:00,
2013-06-19 00:44:00,50.2,20.0,29.76,NNW,345,1.0,6.0,30,0.00,,,0.00,WeatherTracker,2013-06-19 07:44:00,
2013-06-19 00:49:00,50.5,21.8,29.76,NNW,345,2.0,6.0,32,0.00,,,0.00,WeatherTracker,2013-06-19 07:49:00,
2013-06-19 00:54:00,49.8,22.6,29.75,East,89,5.0,6.0,34,0.00,,,0.00,WeatherTracker,2013-06-19 07:54:00,
2013-06-19 01:00:00,49.5,20.9,29.75,ESE,112,0.0,6.0,32,0.00,,,0.00,WeatherTracker,2013-06-19 08:00:00,
2013-06-19 01:05:00,49.5,20.9,29.75,ESE,109,1.0,5.0,32,0.00,,,0.00,WeatherTracker,2013-06-19 08:05:00,
2013-06-19 01:10:00,49.1,17.4,29.75,ESE,123,4.0,9.0,28,0.00,,,0.00,WeatherTracker,2013-06-19 08:10:00,
2013-06-19 01:15:00,49.2,20.6,29.75,ENE,71,2.0,9.0,32,0.00,,,0.00,WeatherTracker,2013-06-19 08:15:00,
2013-06-19 01:20:00,48.5,21.4,29.75,North,354,4.0,6.0,34,0.00,,,0.00,WeatherTracker,2013-06-19 08:20:00,
2013-06-19 01:25:00,47.8,21.5,29.75,NNE,13,0.0,6.0,35,0.00,,,0.00,WeatherTracker,2013-06-19 08:25:00,
2013-06-19 01:30:00,47.4,20.5,29.74,NE,44,1.0,11.0,34,0.00,,,0.00,WeatherTracker,2013-06-19 08:30:00,
2013-06-19 01:35:00,47.7,20.0,29.75,North,8,5.0,11.0,33,0.00,,,0.00,WeatherTracker,2013-06-19 08:35:00,
2013-06-19 01:40:00,47.9,20.9,29.74,North,10,1.0,9.0,34,0.00,,,0.00,WeatherTracker,2013-06-19 08:40:00,
2013-06-19 01:45:00,48.2,14.9,29.74,NW,323,4.0,9.0,26,0.00,,,0.00,WeatherTracker,2013-06-19 08:45:00,
2013-06-19 01:50:00,49.6,20.2,29.73,North,5,9.0,12.0,31,0.00,,,0.00,WeatherTracker,2013-06-19 08:50:00,
2013-06-19 01:55:00,49.5,20.1,29.74,NNE,23,2.0,15.0,31,0.00,,,0.00,WeatherTracker,2013-06-19 08:55:00,
2013-06-19 02:00:00,49.4,20.8,29.73,NNE,25,4.0,15.0,32,0.00,,,0.00,WeatherTracker,2013-06-19 09:00:00,
2013-06-19 02:05:00,49.2,19.9,29.74,NE,36,4.0,13.0,31,0.00,,,0.00,WeatherTracker,2013-06-19 09:05:00,
2013-06-19 02:10:00,48.8,21.7,29.74,NE,44,5.0,13.0,34,0.00,,,0.00,WeatherTracker,2013-06-19 09:10:00,
2013-06-19 02:15:00,47.9,21.6,29.74,ENE,71,1.0,10.0,35,0.00,,,0.00,WeatherTracker,2013-06-19 09:15:00,
2013-06-19 02:20:00,47.5,21.9,29.74,ENE,61,5.0,7.0,36,0.00,,,0.00,WeatherTracker,2013-06-19 09:20:00,
2013-06-19 02:25:00,47.4,21.8,29.74,NNE,29,2.0,10.0,36,0.00,,,0.00,WeatherTracker,2013-06-19 09:25:00,
2013-06-19 02:30:00,47.1,20.9,29.74,NNE,28,4.0,10.0,35,0.00,,,0.00,WeatherTracker,2013-06-19 09:30:00,
2013-06-19 02:35:00,47.0,20.8,29.75,NNE,22,2.0,6.0,35,0.00,,,0.00,WeatherTracker,2013-06-19 09:35:00,
2013-06-19 02:40:00,47.2,20.3,29.75,NNW,329,2.0,6.0,34,0.00,,,0.00,WeatherTracker,2013-06-19 09:40:00,
2013-06-19 02:45:00,47.7,21.4,29.75,NE,54,4.0,7.0,35,0.00,,,0.00,WeatherTracker,2013-06-19 09:45:00,
2013-06-19 02:51:00,48.4,19.9,29.75,WSW,244,4.0,10.0,32,0.00,,,0.00,WeatherTracker,2013-06-19 09:51:00,
2013-06-19 02:56:00,48.8,18.0,29.75,NW,321,5.0,10.0,29,0.00,,,0.00,WeatherTracker,2013-06-19 09:56:00,
2013-06-19 03:01:00,49.6,19.5,29.75,NNE,23,4.0,9.0,30,0.00,,,0.00,WeatherTracker,2013-06-19 10:01:00,
2013-06-19 03:06:00,49.0,19.7,29.75,NNW,339,6.0,11.0,31,0.00,,,0.00,WeatherTracker,2013-06-19 10:06:00,
2013-06-19 03:11:00,48.5,18.5,29.76,NE,40,1.0,11.0,30,0.00,,,0.00,WeatherTracker,2013-06-19 10:11:00,
2013-06-19 03:16:00,48.6,19.3,29.76,ENE,66,2.0,9.0,31,0.00,,,0.00,WeatherTracker,2013-06-19 10:16:00,
2013-06-19 03:21:00,48.5,19.3,29.76,NNE,14,0.0,9.0,31,0.00,,,0.00,WeatherTracker,2013-06-19 10:21:00,
2013-06-19 03:26:00,47.9,20.2,29.76,NNE,14,2.0,9.0,33,0.00,,,0.00,WeatherTracker,2013-06-19 10:26:00,
2013-06-19 03:31:00,47.0,20.8,29.77,NNE,15,2.0,3.0,35,0.00,,,0.00,WeatherTracker,2013-06-19 10:31:00,
2013-06-19 03:36:00,46.5,19.7,29.76,NNE,15,3.0,3.0,34,0.00,,,0.00,WeatherTracker,2013-06-19 10:36:00,
2013-06-19 03:41:00,46.5,19.7,29.76,NNE,16,0.0,4.0,34,0.00,,,0.00,WeatherTracker,2013-06-19 10:41:00,
2013-06-19 03:46:00,46.1,21.9,29.77,NNE,16,0.0,4.0,38,0.00,,,0.00,WeatherTracker,2013-06-19 10:46:00,
2013-06-19 03:51:00,44.2,20.8,29.77,NNW,337,1.0,4.0,39,0.00,,,0.00,WeatherTracker,2013-06-19 10:51:00,
2013-06-19 03:56:00,43.5,21.4,29.77,NNW,337,0.0,4.0,41,0.00,,,0.00,WeatherTracker,2013-06-19 10:56:00,
2013-06-19 04:01:00,42.4,22.0,29.77,NNW,337,0.0,4.0,44,0.00,,,0.00,WeatherTracker,2013-06-19 11:01:00,
2013-06-19 04:06:00,42.4,21.0,29.77,NNW,337,0.0,4.0,42,0.00,,,0.00,WeatherTracker,2013-06-19 11:06:00,
2013-06-19 04:11:00,42.9,18.4,29.77,NNE,29,5.0,6.0,37,0.00,,,0.00,WeatherTracker,2013-06-19 11:11:00,
2013-06-19 04:16:00,46.0,18.5,29.77,North,4,2.0,10.0,33,0.00,,,0.00,WeatherTracker,2013-06-19 11:16:00,
2013-06-19 04:21:00,46.1,22.5,29.77,West,261,4.0,10.0,39,0.00,,,0.00,WeatherTracker,2013-06-19 11:21:00,
2013-06-19 04:26:00,44.1,18.9,29.78,SSW,204,0.0,7.0,36,0.00,,,0.00,WeatherTracker,2013-06-19 11:26:00,
2013-06-19 04:31:00,44.0,21.2,29.77,East,90,3.0,7.0,40,0.00,,,0.00,WeatherTracker,2013-06-19 11:31:00,
2013-06-19 04:36:00,43.9,20.0,29.77,ENE,61,3.0,5.0,38,0.00,,,0.00,WeatherTracker,2013-06-19 11:36:00,
2013-06-19 04:41:00,43.9,21.2,29.77,NNE,15,6.0,6.0,40,0.00,,,0.00,WeatherTracker,2013-06-19 11:41:00,
2013-06-19 04:46:00,43.9,19.3,29.77,NE,42,3.0,9.0,37,0.00,,,0.00,WeatherTracker,2013-06-19 11:46:00,
2013-06-19 04:52:00,44.2,20.8,29.77,NNE,20,3.0,9.0,39,0.00,,,0.00,WeatherTracker,2013-06-19 11:52:00,
2013-06-19 04:57:00,44.2,19.0,29.78,SSE,149,5.0,7.0,36,0.00,,,0.00,WeatherTracker,2013-06-19 11:57:00,
2013-06-19 05:02:00,43.8,19.2,29.78,NE,40,0.0,7.0,37,0.00,,,0.00,WeatherTracker,2013-06-19 12:02:00,
2013-06-19 05:07:00,43.5,19.0,29.78,NNW,339,0.0,7.0,37,0.00,,,0.00,WeatherTracker,2013-06-19 12:07:00,
2013-06-19 05:12:00,42.9,19.1,29.78,NNW,333,0.0,5.0,38,0.00,,,0.00,WeatherTracker,2013-06-19 12:12:00,
2013-06-19 05:17:00,42.3,21.4,29.78,East,94,4.0,5.0,43,0.00,,,0.00,WeatherTracker,2013-06-19 12:17:00,
2013-06-19 05:22:00,42.2,20.2,29.79,NE,54,0.0,5.0,41,0.00,,,0.00,WeatherTracker,2013-06-19 12:22:00,
2013-06-19 05:27:00,42.0,18.9,29.79,South,170,6.0,6.0,39,0.00,,,0.00,WeatherTracker,2013-06-19 12:27:00,
2013-06-19 05:32:00,41.5,18.4,29.79,SSW,197,1.0,7.0,39,0.00,,,0.00,WeatherTracker,2013-06-19 12:32:00,
2013-06-19 05:37:00,42.3,17.9,29.79,NE,43,2.0,10.0,37,0.00,,,0.00,WeatherTracker,2013-06-19 12:37:00,
2013-06-19 05:42:00,42.9,18.4,29.80,ESE,104,6.0,10.0,37,0.00,,,0.00,WeatherTracker,2013-06-19 12:42:00,
2013-06-19 05:47:00,43.1,19.2,29.80,ESE,106,3.0,7.0,38,0.00,,,0.00,WeatherTracker,2013-06-19 12:47:00,
2013-06-19 05:52:00,42.8,19.0,29.80,NNW,338,2.0,7.0,38,0.00,,,0.00,WeatherTracker,2013-06-19 12:52:00,
2013-06-19 05:57:00,42.5,18.1,29.80,NNW,338,0.0,6.0,37,0.00,,,0.00,WeatherTracker,2013-06-19 12:57:00,
2013-06-19 06:02:00,42.6,18.2,29.80,NNW,338,0.0,6.0,37,0.00,,,0.00,WeatherTracker,2013-06-19 13:02:00,
2013-06-19 06:07:00,43.0,17.9,29.80,NNW,337,0.0,4.0,36,0.00,,,0.00,WeatherTracker,2013-06-19 13:07:00,
2013-06-19 06:12:00,43.4,20.1,29.80,South,184,6.0,6.0,39,0.00,,,0.00,WeatherTracker,2013-06-19 13:12:00,
2013-06-19 06:17:00,43.0,19.1,29.80,SE,135,2.0,7.0,38,0.00,,,0.00,WeatherTracker,2013-06-19 13:17:00,
2013-06-19 06:23:00,43.7,19.2,29.80,SSE,150,3.0,7.0,37,0.00,,,0.00,WeatherTracker,2013-06-19 13:23:00,
2013-06-19 06:28:00,44.7,19.4,29.80,SE,129,2.0,5.0,36,0.00,,,0.00,WeatherTracker,2013-06-19 13:28:00,
2013-06-19 06:33:00,45.3,19.3,29.80,East,100,1.0,5.0,35,0.00,,,0.00,WeatherTracker,2013-06-19 13:33:00,
2013-06-19 06:38:00,45.5,20.1,29.80,East,98,0.0,5.0,36,0.00,,,0.00,WeatherTracker,2013-06-19 13:38:00,
2013-06-19 06:43:00,46.5,19.7,29.80,South,187,5.0,5.0,34,0.00,,,0.00,WeatherTracker,2013-06-19 13:43:00,
2013-06-19 06:48:00,48.4,18.4,29.79,West,259,6.0,11.0,30,0.00,,,0.00,WeatherTracker,2013-06-19 13:48:00,
2013-06-19 06:53:00,51.3,18.5,29.79,WSW,248,7.0,13.0,27,0.00,,,0.00,WeatherTracker,2013-06-19 13:53:00,
2013-06-19 06:58:00,51.5,21.9,29.79,East,83,2.0,17.0,31,0.00,,,0.00,WeatherTracker,2013-06-19 13:58:00,
2013-06-19 07:03:00,49.7,21.1,29.79,SE,128,4.0,27.0,32,0.00,,,0.00,WeatherTracker,2013-06-19 14:03:00,
2013-06-19 07:08:00,50.7,18.8,29.79,SSE,152,10.0,27.0,28,0.00,,,0.00,WeatherTracker,2013-06-19 14:08:00,
2013-06-19 07:13:00,51.7,19.7,29.79,ESE,117,7.0,16.0,28,0.00,,,0.00,WeatherTracker,2013-06-19 14:13:00,
2013-06-19 07:18:00,52.7,19.7,29.79,South,177,13.0,19.0,27,0.00,,,0.00,WeatherTracker,2013-06-19 14:18:00,
2013-06-19 07:23:00,52.3,17.5,29.79,ENE,61,4.0,19.0,25,0.00,,,0.00,WeatherTracker,2013-06-19 14:23:00,
2013-06-19 07:28:00,53.3,23.4,29.79,ENE,75,5.0,19.0,31,0.00,,,0.00,WeatherTracker,2013-06-19 14:28:00,
2013-06-19 07:33:00,53.2,21.8,29.80,NNW,340,0.0,17.0,29,0.00,,,0.00,WeatherTracker,2013-06-19 14:33:00,
2013-06-19 07:38:00,53.3,25.7,29.80,SSE,152,6.0,10.0,34,0.00,,,0.00,WeatherTracker,2013-06-19 14:38:00,
2013-06-19 07:43:00,53.3,20.2,29.80,NW,325,0.0,10.0,27,0.00,,,0.00,WeatherTracker,2013-06-19 14:43:00,
2013-06-19 07:48:00,54.2,21.8,29.80,ESE,104,3.0,9.0,28,0.00,,,0.00,WeatherTracker,2013-06-19 14:48:00,
2013-06-19 07:54:00,55.0,24.1,29.80,East,81,0.0,9.0,30,0.00,,,0.00,WeatherTracker,2013-06-19 14:54:00,
2013-06-19 07:59:00,55.9,22.4,29.80,ENE,77,1.0,7.0,27,0.00,,,0.00,WeatherTracker,2013-06-19 14:59:00,
2013-06-19 08:04:00,56.5,24.6,29.80,NNE,15,1.0,6.0,29,0.00,,,0.00,WeatherTracker,2013-06-19 15:04:00,
2013-06-19 08:09:00,56.9,24.1,29.80,NNE,15,0.0,6.0,28,0.00,,,0.00,WeatherTracker,2013-06-19 15:09:00,
2013-06-19 08:14:00,57.1,24.3,29.80,NE,53,2.0,6.0,28,0.00,,,0.00,WeatherTracker,2013-06-19 15:14:00,
2013-06-19 08:19:00,57.1,26.0,29.80,NNE,26,4.0,6.0,30,0.00,,,0.00,WeatherTracker,2013-06-19 15:19:00,
2013-06-19 08:24:00,57.1,24.3,29.80,East,95,7.0,7.0,28,0.00,,,0.00,WeatherTracker,2013-06-19 15:24:00,
2013-06-19 08:29:00,57.2,24.4,29.80,North,356,10.0,13.0,28,0.00,,,0.00,WeatherTracker,2013-06-19 15:29:00,
2013-06-19 08:34:00,57.1,23.4,29.80,NE,39,3.0,13.0,27,0.00,,,0.00,WeatherTracker,2013-06-19 15:34:00,
2013-06-19 08:39:00,57.2,23.5,29.80,NNE,32,9.0,14.0,27,0.00,,,0.00,WeatherTracker,2013-06-19 15:39:00,
2013-06-19 08:44:00,57.3,26.9,29.81,NNE,15,1.0,14.0,31,0.00,,,0.00,WeatherTracker,2013-06-19 15:44:00,
2013-06-19 08:49:00,57.9,25.0,29.80,North,357,6.0,14.0,28,0.00,,,0.00,WeatherTracker,2013-06-19 15:49:00,
2013-06-19 08:54:00,57.9,25.0,29.80,NNE,14,6.0,14.0,28,0.00,,,0.00,WeatherTracker,2013-06-19 15:54:00,
2013-06-19 08:59:00,58.1,24.3,29.81,NNE,20,6.0,14.0,27,0.00,,,0.00,WeatherTracker,2013-06-19 15:59:00,
2013-06-19 09:04:00,58.6,23.8,29.81,North,7,7.0,15.0,26,0.00,,,0.00,WeatherTracker,2013-06-19 16:04:00,
2013-06-19 09:09:00,58.6,22.9,29.81,NE,39,5.0,15.0,25,0.00,,,0.00,WeatherTracker,2013-06-19 16:09:00,
2013-06-19 09:14:00,58.7,24.8,29.82,NNE,29,4.0,12.0,27,0.00,,,0.00,WeatherTracker,2013-06-19 16:14:00,
2013-06-19 09:19:00,59.0,25.1,29.82,ENE,61,3.0,12.0,27,0.00,,,0.00,WeatherTracker,2013-06-19 16:19:00,
2013-06-19 09:24:00,59.5,24.6,29.82,NNE,12,7.0,10.0,26,0.00,,,0.00,WeatherTracker,2013-06-19 16:24:00,
2013-06-19 09:30:00,60.0,24.1,29.82,NE,35,4.0,10.0,25,0.00,,,0.00,WeatherTracker,2013-06-19 16:30:00,
2013-06-19 09:35:00,60.5,25.4,29.82,North,4,5.0,8.0,26,0.00,,,0.00,WeatherTracker,2013-06-19 16:35:00,
2013-06-19 09:40:00,60.7,19.4,29.82,NNW,339,6.0,7.0,20,0.00,,,0.00,WeatherTracker,2013-06-19 16:40:00,
2013-06-19 09:45:00,60.0,20.0,29.82,North,357,3.0,7.0,21,0.00,,,0.00,WeatherTracker,2013-06-19 16:45:00,
2013-06-19 09:50:00,60.0,21.1,29.81,North,357,0.0,7.0,22,0.00,,,0.00,WeatherTracker,2013-06-19 16:50:00,
2013-06-19 09:55:00,61.1,22.0,29.81,North,358,0.0,5.0,22,0.00,,,0.00,WeatherTracker,2013-06-19 16:55:00,
2013-06-19 10:00:00,62.0,20.5,29.81,North,350,7.0,11.0,20,0.00,,,0.00,WeatherTracker,2013-06-19 17:00:00,
2013-06-19 10:05:00,61.2,16.1,29.81,NNE,17,1.0,16.0,17,0.00,,,0.00,WeatherTracker,2013-06-19 17:05:00,
2013-06-19 10:10:00,61.3,18.7,29.81,NE,54,0.0,16.0,19,0.00,,,0.00,WeatherTracker,2013-06-19 17:10:00,
2013-06-19 10:15:00,61.6,18.9,29.82,WNW,284,4.0,10.0,19,0.00,,,0.00,WeatherTracker,2013-06-19 17:15:00,
2013-06-19 10:20:00,61.6,18.9,29.81,North,350,5.0,10.0,19,0.00,,,0.00,WeatherTracker,2013-06-19 17:20:00,
2013-06-19 10:25:00,62.2,21.8,29.82,NNW,346,4.0,9.0,21,0.00,,,0.00,WeatherTracker,2013-06-19 17:25:00,
2013-06-19 10:30:00,63.3,30.5,29.82,ENE,71,6.0,14.0,29,0.00,,,0.00,WeatherTracker,2013-06-19 17:30:00,
2013-06-19 10:35:00,64.1,29.4,29.82,East,83,7.0,14.0,27,0.00,,,0.00,WeatherTracker,2013-06-19 17:35:00,
2013-06-19 10:40:00,64.0,26.5,29.82,East,85,12.0,15.0,24,0.00,,,0.00,WeatherTracker,2013-06-19 17:40:00,
2013-06-19 10:46:00,64.3,22.4,29.82,ESE,103,9.0,15.0,20,0.00,,,0.00,WeatherTracker,2013-06-19 17:46:00,
2013-06-19 10:51:00,64.5,26.9,29.82,ENE,71,7.0,13.0,24,0.00,,,0.00,WeatherTracker,2013-06-19 17:51:00,
2013-06-19 10:56:00,64.5,25.9,29.82,ENE,61,1.0,9.0,23,0.00,,,0.00,WeatherTracker,2013-06-19 17:56:00,
2013-06-19 11:01:00,65.0,28.3,29.82,East,83,6.0,11.0,25,0.00,,,0.00,WeatherTracker,2013-06-19 18:01:00,
2013-06-19 11:06:00,65.1,20.6,29.82,ESE,103,3.0,11.0,18,0.00,,,0.00,WeatherTracker,2013-06-19 18:06:00,
2013-06-19 11:11:00,64.3,29.6,29.82,SE,129,10.0,11.0,27,0.00,,,0.00,WeatherTracker,2013-06-19 18:11:00,
2013-06-19 11:16:00,64.9,26.2,29.82,East,79,7.0,12.0,23,0.00,,,0.00,WeatherTracker,2013-06-19 18:16:00,
2013-06-19 11:21:00,65.2,20.6,29.82,NE,51,3.0,12.0,18,0.00,,,0.00,WeatherTracker,2013-06-19 18:21:00,
2013-06-19 11:26:00,65.3,23.2,29.82,East,88,5.0,10.0,20,0.00,,,0.00,WeatherTracker,2013-06-19 18:26:00,
2013-06-19 11:31:00,65.6,21.0,29.82,NE,46,1.0,9.0,18,0.00,,,0.00,WeatherTracker,2013-06-19 18:31:00,
2013-06-19 11:36:00,65.9,22.5,29.82,NNE,27,0.0,7.0,19,0.00,,,0.00,WeatherTracker,2013-06-19 18:36:00,
2013-06-19 11:41:00,66.2,23.9,29.83,East,81,5.0,6.0,20,0.00,,,0.00,WeatherTracker,2013-06-19 18:41:00,
2013-06-19 11:46:00,66.1,26.2,29.82,SE,137,3.0,8.0,22,0.00,,,0.00,WeatherTracker,2013-06-19 18:46:00,
2013-06-19 11:51:00,66.0,21.3,29.82,East,98,7.0,8.0,18,0.00,,,0.00,WeatherTracker,2013-06-19 18:51:00,
2013-06-19 11:56:00,66.0,22.6,29.82,ESE,118,4.0,12.0,19,0.00,,,0.00,WeatherTracker,2013-06-19 18:56:00,
2013-06-19 12:01:00,66.2,21.5,29.82,SE,128,1.0,12.0,18,0.00,,,0.00,WeatherTracker,2013-06-19 19:01:00,
2013-06-19 12:06:00,66.3,22.8,29.83,ESE,122,2.0,11.0,19,0.00,,,0.00,WeatherTracker,2013-06-19 19:06:00,
2013-06-19 12:11:00,65.6,24.6,29.83,ESE,115,3.0,10.0,21,0.00,,,0.00,WeatherTracker,2013-06-19 19:11:00,
2013-06-19 12:17:00,66.3,24.0,29.83,North,2,4.0,6.0,20,0.00,,,0.00,WeatherTracker,2013-06-19 19:17:00,
2013-06-19 12:22:00,66.8,23.2,29.82,NNW,335,8.0,10.0,19,0.00,,,0.00,WeatherTracker,2013-06-19 19:22:00,
2013-06-19 12:27:00,66.9,26.8,29.82,NW,318,4.0,10.0,22,0.00,,,0.00,WeatherTracker,2013-06-19 19:27:00,
2013-06-19 12:32:00,67.3,23.6,29.83,ENE,76,5.0,24.0,19,0.00,,,0.00,WeatherTracker,2013-06-19 19:32:00,
2013-06-19 12:37:00,68.3,25.7,29.82,East,90,5.0,24.0,20,0.00,,,0.00,WeatherTracker,2013-06-19 19:37:00,
2013-06-19 12:42:00,68.7,22.1,29.83,ENE,66,1.0,11.0,17,0.00,,,0.00,WeatherTracker,2013-06-19 19:42:00,
2013-06-19 12:47:00,68.7,20.7,29.83,North,2,2.0,7.0,16,0.00,,,0.00,WeatherTracker,2013-06-19 19:47:00,
2013-06-19 12:52:00,68.1,25.5,29.82,WSW,241,4.0,12.0,20,0.00,,,0.00,WeatherTracker,2013-06-19 19:52:00,
2013-06-19 12:57:00,67.1,28.1,29.83,ESE,119,1.0,12.0,23,0.00,,,0.00,WeatherTracker,2013-06-19 19:57:00,
2013-06-19 13:02:00,67.0,20.8,29.83,WNW,298,4.0,11.0,17,0.00,,,0.00,WeatherTracker,2013-06-19 20:02:00,
2013-06-19 13:07:00,66.4,21.6,29.82,SW,233,13.0,15.0,18,0.00,,,0.00,WeatherTracker,2013-06-19 20:07:00,
2013-06-19 13:12:00,65.7,25.8,29.82,WNW,284,8.0,28.0,22,0.00,,,0.00,WeatherTracker,2013-06-19 20:12:00,
2013-06-19 13:17:00,65.1,21.8,29.82,West,271,13.0,28.0,19,0.00,,,0.00,WeatherTracker,2013-06-19 20:17:00,
2013-06-19 13:22:00,65.7,25.8,29.81,WNW,302,13.0,20.0,22,0.00,,,0.00,WeatherTracker,2013-06-19 20:22:00,
2013-06-19 13:27:00,66.3,27.4,29.82,West,279,6.0,20.0,23,0.00,,,0.00,WeatherTracker,2013-06-19 20:27:00,
2013-06-19 13:32:00,66.8,25.6,29.82,WNW,284,7.0,21.0,21,0.00,,,0.00,WeatherTracker,2013-06-19 20:32:00,
2013-06-19 13:37:00,66.8,28.8,29.82,SSW,207,4.0,21.0,24,0.00,,,0.00,WeatherTracker,2013-06-19 20:37:00,
2013-06-19 13:42:00,66.9,27.9,29.82,NNW,331,6.0,20.0,23,0.00,,,0.00,WeatherTracker,2013-06-19 20:42:00,
2013-06-19 13:47:00,66.9,25.7,29.81,WSW,254,11.0,19.0,21,0.00,,,0.00,WeatherTracker,2013-06-19 20:47:00,
2013-06-19 13:52:00,67.0,30.0,29.82,SW,219,6.0,19.0,25,0.00,,,0.00,WeatherTracker,2013-06-19 20:52:00,
2013-06-19 13:57:00,67.2,28.1,29.81,WSW,248,7.0,15.0,23,0.00,,,0.00,WeatherTracker,2013-06-19 20:57:00,
2013-06-19 14:02:00,66.9,25.7,29.81,SW,228,10.0,19.0,21,0.00,,,0.00,WeatherTracker,2013-06-19 21:02:00,
2013-06-19 14:07:00,67.4,27.2,29.81,NW,318,26.0,26.0,22,0.00,,,0.00,WeatherTracker,2013-06-19 21:07:00,
2013-06-19 14:12:00,67.2,24.8,29.81,West,268,10.0,26.0,20,0.00,,,0.00,WeatherTracker,2013-06-19 21:12:00,
2013-06-19 14:17:00,67.6,29.5,29.81,South,174,8.0,26.0,24,0.00,,,0.00,WeatherTracker,2013-06-19 21:17:00,
2013-06-19 14:23:00,67.6,27.4,29.81,West,279,12.0,16.0,22,0.00,,,0.00,WeatherTracker,2013-06-19 21:23:00,
2013-06-19 14:28:00,66.9,28.9,29.81,West,264,12.0,19.0,24,0.00,,,0.00,WeatherTracker,2013-06-19 21:28:00,
2013-06-19 14:33:00,67.2,28.1,29.81,West,270,14.0,24.0,23,0.00,,,0.00,WeatherTracker,2013-06-19 21:33:00,
2013-06-19 14:38:00,67.3,31.2,29.81,West,275,4.0,24.0,26,0.00,,,0.00,WeatherTracker,2013-06-19 21:38:00,
2013-06-19 14:43:00,67.3,28.2,29.81,West,270,11.0,20.0,23,0.00,,,0.00,WeatherTracker,2013-06-19 21:43:00,
2013-06-19 14:48:00,67.7,28.6,29.81,WSW,254,5.0,20.0,23,0.00,,,0.00,WeatherTracker,2013-06-19 21:48:00,
2013-06-19 14:53:00,67.9,28.7,29.80,WNW,289,13.0,20.0,23,0.00,,,0.00,WeatherTracker,2013-06-19 21:53:00,
2013-06-19 14:58:00,67.5,28.4,29.80,WNW,284,15.0,18.0,23,0.00,,,0.00,WeatherTracker,2013-06-19 21:58:00,
2013-06-19 15:03:00,67.4,30.4,29.80,WSW,256,3.0,20.0,25,0.00,,,0.00,WeatherTracker,2013-06-19 22:03:00,
2013-06-19 15:08:00,67.4,27.2,29.80,WNW,295,8.0,20.0,22,0.00,,,0.00,WeatherTracker,2013-06-19 22:08:00,
2013-06-19 15:13:00,67.6,30.5,29.80,West,280,10.0,20.0,25,0.00,,,0.00,WeatherTracker,2013-06-19 22:13:00,
2013-06-19 15:18:00,67.9,28.7,29.81,WNW,293,5.0,27.0,23,0.00,,,0.00,WeatherTracker,2013-06-19 22:18:00,
2013-06-19 15:23:00,67.7,27.5,29.81,West,281,16.0,27.0,22,0.00,,,0.00,WeatherTracker,2013-06-19 22:23:00,
2013-06-19 15:28:00,67.8,29.7,29.80,West,264,9.0,23.0,24,0.00,,,0.00,WeatherTracker,2013-06-19 22:28:00,
2013-06-19 15:33:00,67.6,25.1,29.80,NNW,334,16.0,23.0,20,0.00,,,0.00,WeatherTracker,2013-06-19 22:33:00,
2013-06-19 15:38:00,67.9,27.7,29.80,WNW,294,17.0,24.0,22,0.00,,,0.00,WeatherTracker,2013-06-19 22:38:00,
2013-06-19 15:43:00,67.6,25.1,29.81,West,260,10.0,24.0,20,0.00,,,0.00,WeatherTracker,2013-06-19 22:43:00,
2013-06-19 15:48:00,67.2,27.1,29.81,NW,320,7.0,24.0,22,0.00,,,0.00,WeatherTracker,2013-06-19 22:48:00,
2013-06-19 15:53:00,67.4,28.3,29.81,WNW,298,7.0,24.0,23,0.00,,,0.00,WeatherTracker,2013-06-19 22:53:00,
2013-06-19 15:58:00,67.6,23.9,29.81,WNW,292,1.0,23.0,19,0.00,,,0.00,WeatherTracker,2013-06-19 22:58:00,
2013-06-19 16:03:00,67.7,26.4,29.81,West,266,16.0,23.0,21,0.00,,,0.00,WeatherTracker,2013-06-19 23:03:00,
2013-06-19 16:08:00,67.5,27.3,29.81,West,261,15.0,21.0,22,0.00,,,0.00,WeatherTracker,2013-06-19 23:08:00,
2013-06-19 16:13:00,67.8,28.7,29.81,West,279,15.0,21.0,23,0.00,,,0.00,WeatherTracker,2013-06-19 23:13:00,
2013-06-19 16:18:00,67.8,27.6,29.81,West,268,9.0,17.0,22,0.00,,,0.00,WeatherTracker,2013-06-19 23:18:00,
2013-06-19 16:23:00,67.2,23.5,29.81,WSW,255,17.0,19.0,19,0.00,,,0.00,WeatherTracker,2013-06-19 23:23:00,
2013-06-19 16:28:00,67.3,28.2,29.81,WNW,289,11.0,24.0,23,0.00,,,0.00,WeatherTracker,2013-06-19 23:28:00,
2013-06-19 16:34:00,67.2,23.5,29.82,West,279,11.0,24.0,19,0.00,,,0.00,WeatherTracker,2013-06-19 23:34:00,
2013-06-19 16:39:00,66.9,25.7,29.82,WNW,285,18.0,20.0,21,0.00,,,0.00,WeatherTracker,2013-06-19 23:39:00,
2013-06-19 16:44:00,67.1,25.9,29.81,WNW,300,9.0,20.0,21,0.00,,,0.00,WeatherTracker,2013-06-19 23:44:00,
2013-06-19 16:49:00,67.4,26.1,29.82,WNW,285,13.0,20.0,21,0.00,,,0.00,WeatherTracker,2013-06-19 23:49:00,
2013-06-19 16:54:00,67.3,24.9,29.82,WNW,291,10.0,20.0,20,0.00,,,0.00,WeatherTracker,2013-06-19 23:54:00,
2013-06-19 16:59:00,67.1,24.7,29.82,WSW,250,5.0,20.0,20,0.00,,,0.00,WeatherTracker,2013-06-19 23:59:00,
2013-06-19 17:04:00,66.6,24.3,29.82,West,267,11.0,21.0,20,0.00,,,0.00,WeatherTracker,2013-06-20 00:04:00,
2013-06-19 17:09:00,67.1,27.0,29.82,West,262,12.0,21.0,22,0.00,,,0.00,WeatherTracker,2013-06-20 00:09:00,
2013-06-19 17:14:00,67.0,26.9,29.82,West,260,12.0,21.0,22,0.00,,,0.00,WeatherTracker,2013-06-20 00:14:00,
2013-06-19 17:19:00,67.3,28.2,29.83,West,273,4.0,22.0,23,0.00,,,0.00,WeatherTracker,2013-06-20 00:19:00,
2013-06-19 17:24:00,66.8,24.4,29.83,West,279,4.0,22.0,20,0.00,,,0.00,WeatherTracker,2013-06-20 00:24:00,
2013-06-19 17:29:00,66.9,23.3,29.83,West,281,11.0,21.0,19,0.00,,,0.00,WeatherTracker,2013-06-20 00:29:00,
2013-06-19 17:34:00,66.6,23.1,29.83,SW,221,12.0,21.0,19,0.00,,,0.00,WeatherTracker,2013-06-20 00:34:00,
2013-06-19 17:39:00,66.3,24.0,29.83,NW,317,13.0,20.0,20,0.00,,,0.00,WeatherTracker,2013-06-20 00:39:00,
2013-06-19 17:44:00,66.4,27.5,29.83,SW,216,12.0,20.0,23,0.00,,,0.00,WeatherTracker,2013-06-20 00:44:00,
2013-06-19 17:49:00,66.4,26.4,29.83,SSW,198,16.0,17.0,22,0.00,,,0.00,WeatherTracker,2013-06-20 00:49:00,
2013-06-19 17:54:00,65.7,23.5,29.83,SW,231,5.0,17.0,20,0.00,,,0.00,WeatherTracker,2013-06-20 00:54:00,
2013-06-19 17:59:00,65.7,24.7,29.83,WNW,292,11.0,23.0,21,0.00,,,0.00,WeatherTracker,2013-06-20 00:59:00,
2013-06-19 18:04:00,65.5,25.6,29.83,WSW,243,12.0,23.0,22,0.00,,,0.00,WeatherTracker,2013-06-20 01:04:00,
2013-06-19 18:09:00,65.4,24.5,29.83,West,264,11.0,20.0,21,0.00,,,0.00,WeatherTracker,2013-06-20 01:09:00,
2013-06-19 18:15:00,65.2,24.3,29.84,West,274,19.0,20.0,21,0.00,,,0.00,WeatherTracker,2013-06-20 01:15:00,
2013-06-19 18:20:00,65.0,25.2,29.84,NW,315,13.0,19.0,22,0.00,,,0.00,WeatherTracker,2013-06-20 01:20:00,
2013-06-19 18:25:00,64.9,27.2,29.84,WNW,301,16.0,19.0,24,0.00,,,0.00,WeatherTracker,2013-06-20 01:25:00,
2013-06-19 18:30:00,64.7,27.1,29.84,West,266,11.0,19.0,24,0.00,,,0.00,WeatherTracker,2013-06-20 01:30:00,
2013-06-19 18:35:00,64.5,24.8,29.84,WNW,286,6.0,19.0,22,0.00,,,0.00,WeatherTracker,2013-06-20 01:35:00,
2013-06-19 18:40:00,64.5,25.9,29.84,West,261,10.0,19.0,23,0.00,,,0.00,WeatherTracker,2013-06-20 01:40:00,
2013-06-19 18:45:00,64.2,25.6,29.85,West,275,15.0,17.0,23,0.00,,,0.00,WeatherTracker,2013-06-20 01:45:00,
2013-06-19 18:50:00,64.1,24.5,29.85,WNW,283,15.0,18.0,22,0.00,,,0.00,WeatherTracker,2013-06-20 01:50:00,
2013-06-19 18:55:00,64.0,25.5,29.85,WSW,257,10.0,19.0,23,0.00,,,0.00,WeatherTracker,2013-06-20 01:55:00,
2013-06-19 19:00:00,63.9,27.4,29.85,WNW,297,16.0,19.0,25,0.00,,,0.00,WeatherTracker,2013-06-20 02:00:00,
2013-06-19 19:05:00,63.5,24.0,29.85,WNW,285,10.0,17.0,22,0.00,,,0.00,WeatherTracker,2013-06-20 02:05:00,
2013-06-19 19:10:00,63.2,25.8,29.85,WNW,283,13.0,18.0,24,0.00,,,0.00,WeatherTracker,2013-06-20 02:10:00,
2013-06-19 19:15:00,62.9,24.5,29.85,WNW,283,11.0,20.0,23,0.00,,,0.00,WeatherTracker,2013-06-20 02:15:00,
2013-06-19 19:20:00,62.6,27.2,29.85,West,281,7.0,20.0,26,0.00,,,0.00,WeatherTracker,2013-06-20 02:20:00,
2013-06-19 19:25:00,62.5,26.2,29.86,West,273,10.0,18.0,25,0.00,,,0.00,WeatherTracker,2013-06-20 02:25:00,
2013-06-19 19:30:00,62.1,26.8,29.86,NW,304,8.0,18.0,26,0.00,,,0.00,WeatherTracker,2013-06-20 02:30:00,
2013-06-19 19:35:00,61.1,27.8,29.86,WNW,295,6.0,17.0,28,0.00,,,0.00,WeatherTracker,2013-06-20 02:35:00,
2013-06-19 19:40:00,60.7,26.5,29.86,West,268,12.0,15.0,27,0.00,,,0.00,WeatherTracker,2013-06-20 02:40:00,
2013-06-19 19:45:00,60.6,26.4,29.86,WNW,289,6.0,16.0,27,0.00,,,0.00,WeatherTracker,2013-06-20 02:45:00,
2013-06-19 19:50:00,60.4,25.4,29.86,WNW,291,9.0,16.0,26,0.00,,,0.00,WeatherTracker,2013-06-20 02:50:00,
2013-06-19 19:56:00,60.1,26.9,29.86,WNW,302,10.0,16.0,28,0.00,,,0.00,WeatherTracker,2013-06-20 02:56:00,
2013-06-19 20:01:00,59.1,27.7,29.86,WNW,284,9.0,14.0,30,0.00,,,0.00,WeatherTracker,2013-06-20 03:01:00,
2013-06-19 20:06:00,59.0,26.8,29.86,West,266,6.0,14.0,29,0.00,,,0.00,WeatherTracker,2013-06-20 03:06:00,
2013-06-19 20:11:00,59.0,27.6,29.86,West,279,8.0,14.0,30,0.00,,,0.00,WeatherTracker,2013-06-20 03:11:00,
2013-06-19 20:16:00,59.0,28.4,29.86,West,275,7.0,15.0,31,0.00,,,0.00,WeatherTracker,2013-06-20 03:16:00,
2013-06-19 20:21:00,59.0,26.8,29.86,West,279,6.0,16.0,29,0.00,,,0.00,WeatherTracker,2013-06-20 03:21:00,
2013-06-19 20:26:00,59.0,27.6,29.86,NW,316,7.0,16.0,30,0.00,,,0.00,WeatherTracker,2013-06-20 03:26:00,
2013-06-19 20:31:00,59.0,27.6,29.86,WNW,300,7.0,20.0,30,0.00,,,0.00,WeatherTracker,2013-06-20 03:31:00,
2013-06-19 20:36:00,59.1,26.9,29.85,NNW,343,5.0,20.0,29,0.00,,,0.00,WeatherTracker,2013-06-20 03:36:00,
2013-06-19 20:41:00,59.0,25.9,29.85,WNW,291,6.0,15.0,28,0.00,,,0.00,WeatherTracker,2013-06-20 03:41:00,
2013-06-19 20:46:00,59.0,27.6,29.85,NW,306,0.0,12.0,30,0.00,,,0.00,WeatherTracker,2013-06-20 03:46:00,
2013-06-19 20:51:00,58.2,27.7,29.86,NW,307,0.0,11.0,31,0.00,,,0.00,WeatherTracker,2013-06-20 03:51:00,
2013-06-19 20:56:00,56.4,29.8,29.86,SSE,160,5.0,5.0,36,0.00,,,0.00,WeatherTracker,2013-06-20 03:56:00,
2013-06-19 21:01:00,55.9,27.2,29.86,SE,129,3.0,6.0,33,0.00,,,0.00,WeatherTracker,2013-06-20 04:01:00,
2013-06-19 21:06:00,55.8,29.3,29.86,SE,141,3.0,6.0,36,0.00,,,0.00,WeatherTracker,2013-06-20 04:06:00,
2013-06-19 21:11:00,54.5,30.7,29.87,East,100,4.0,6.0,40,0.00,,,0.00,WeatherTracker,2013-06-20 04:11:00,
2013-06-19 21:16:00,52.5,30.1,29.87,SW,227,1.0,7.0,42,0.00,,,0.00,WeatherTracker,2013-06-20 04:16:00,
2013-06-19 21:21:00,51.8,29.4,29.88,SW,223,3.0,7.0,42,0.00,,,0.00,WeatherTracker,2013-06-20 04:21:00,
2013-06-19 21:27:00,51.6,29.3,29.88,SSW,212,4.0,7.0,42,0.00,,,0.00,WeatherTracker,2013-06-20 04:27:00,
2013-06-19 21:32:00,51.7,29.4,29.88,SSW,212,2.0,5.0,42,0.00,,,0.00,WeatherTracker,2013-06-20 04:32:00,
2013-06-19 21:37:00,51.7,27.6,29.89,SSW,212,0.0,5.0,39,0.00,,,0.00,WeatherTracker,2013-06-20 04:37:00,
2013-06-19 21:42:00,52.4,27.5,29.89,SSW,212,1.0,4.0,38,0.00,,,0.00,WeatherTracker,2013-06-20 04:42:00,
2013-06-19 21:47:00,52.7,27.2,29.89,SSW,212,0.0,5.0,37,0.00,,,0.00,WeatherTracker,2013-06-20 04:47:00,
2013-06-19 21:52:00,52.7,29.7,29.89,SE,144,5.0,5.0,41,0.00,,,0.00,WeatherTracker,2013-06-20 04:52:00,
2013-06-19 21:57:00,53.1,28.2,29.89,SSE,160,3.0,6.0,38,0.00,,,0.00,WeatherTracker,2013-06-20 04:57:00,
2013-06-19 22:02:00,54.7,26.9,29.89,South,178,3.0,6.0,34,0.00,,,0.00,WeatherTracker,2013-06-20 05:02:00,
2013-06-19 22:07:00,52.8,28.5,29.89,South,177,3.0,6.0,39,0.00,,,0.00,WeatherTracker,2013-06-20 05:07:00,
2013-06-19 22:12:00,51.3,29.6,29.89,SSE,162,3.0,6.0,43,0.00,,,0.00,WeatherTracker,2013-06-20 05:12:00,
2013-06-19 22:17:00,49.9,29.4,29.90,South,174,2.0,5.0,45,0.00,,,0.00,WeatherTracker,2013-06-20 05:17:00,
2013-06-19 22:22:00,48.9,28.5,29.90,WSW,252,0.0,5.0,45,0.00,,,0.00,WeatherTracker,2013-06-20 05:22:00,
2013-06-19 22:27:00,48.6,28.8,29.90,WSW,252,0.0,5.0,46,0.00,,,0.00,WeatherTracker,2013-06-20 05:27:00,
2013-06-19 22:32:00,48.2,28.4,29.90,NE,54,4.0,4.0,46,0.00,,,0.00,WeatherTracker,2013-06-20 05:32:00,
2013-06-19 22:37:00,48.3,29.0,29.90,ENE,61,2.0,5.0,47,0.00,,,0.00,WeatherTracker,2013-06-20 05:37:00,
2013-06-19 22:42:00,48.1,29.9,29.90,ENE,61,2.0,5.0,49,0.00,,,0.00,WeatherTracker,2013-06-20 05:42:00,
2013-06-19 22:47:00,48.2,28.9,29.90,ENE,78,2.0,4.0,47,0.00,,,0.00,WeatherTracker,2013-06-20 05:47:00,
2013-06-19 22:52:00,48.7,30.9,29.90,ENE,77,0.0,4.0,50,0.00,,,0.00,WeatherTracker,2013-06-20 05:52:00,
2013-06-19 22:57:00,47.4,30.7,29.90,ENE,78,0.0,4.0,52,0.00,,,0.00,WeatherTracker,2013-06-20 05:57:00,
2013-06-19 23:02:00,45.9,30.7,29.90,ENE,78,1.0,3.0,55,0.00,,,0.00,WeatherTracker,2013-06-20 06:02:00,
2013-06-19 23:07:00,44.9,30.2,29.90,ENE,78,0.0,2.0,56,0.00,,,0.00,WeatherTracker,2013-06-20 06:07:00,
2013-06-19 23:12:00,44.7,29.5,29.90,ENE,77,0.0,2.0,55,0.00,,,0.00,WeatherTracker,2013-06-20 06:12:00,
2013-06-19 23:17:00,44.9,28.4,29.90,ENE,78,0.0,2.0,52,0.00,,,0.00,WeatherTracker,2013-06-20 06:17:00,
2013-06-19 23:22:00,44.7,28.6,29.90,ENE,77,1.0,2.0,53,0.00,,,0.00,WeatherTracker,2013-06-20 06:22:00,
2013-06-19 23:27:00,45.0,29.4,29.91,ENE,77,0.0,2.0,54,0.00,,,0.00,WeatherTracker,2013-06-20 06:27:00,
2013-06-19 23:32:00,45.0,28.4,29.90,ENE,78,0.0,2.0,52,0.00,,,0.00,WeatherTracker,2013-06-20 06:32:00,
2013-06-19 23:37:00,45.2,28.2,29.91,ENE,78,0.0,2.0,51,0.00,,,0.00,WeatherTracker,2013-06-20 06:37:00,
2013-06-19 23:42:00,45.0,28.9,29.90,East,79,4.0,4.0,53,0.00,,,0.00,WeatherTracker,2013-06-20 06:42:00,
2013-06-19 23:47:00,44.0,30.6,29.90,East,80,0.0,5.0,59,0.00,,,0.00,WeatherTracker,2013-06-20 06:47:00,
2013-06-19 23:53:00,43.5,31.4,29.90,East,80,0.0,5.0,62,0.00,,,0.00,WeatherTracker,2013-06-20 06:53:00,
2013-06-19 23:58:00,43.1,32.9,29.90,East,80,0.0,3.0,67,0.00,,,0.00,WeatherTracker,2013-06-20 06:58:00,